King City, MO

1:21 PM CDT on October 25, 2014 (GMT -0500)
Lamoni Municipal | Change Station
CLOSE
Current Station
Airport
Location: Lamoni,
Elevation: 1132 ft
Nearby Weather Stations

Elev 1132 ft 40.63 °N, 93.90 °W | Updated 28 minutes ago

Clear
Clear
71 °F
Feels Like 71 °F
N
8
Wind Variable Wind from ENE

Today
High -- | Low -- °F
--% Chance of Precip.
Yesterday
High -- | Low -- °F
Precip. -- in
7:39 AM 6:24 PM
Waxing Crescent, 4% visible
Pressure 30.08 in
Visibility 10.0 miles
Clouds Clear
Dew Point 46 °F
Humidity 41%
Rainfall 0.00 in
Snow Depth Not available.
UV 5 out of 12
Pollen 3.10 out of 12
Air Quality Not available.
Flu Activity No Activity
METAR KLWD 251753Z AUTO 06007KT 10SM CLR 22/08 A3009 RMK AO2 SLP186 T02170078 10217 20106

More Conditions Fewer Conditions

Pressure 30.08 in
Visibility 10.0 miles
Clouds Clear
Dew Point 46 °F
Humidity 41%
Rainfall 0.00 in
Snow Depth Not available.
UV 5 out of 12
Pollen 3.10 out of 12
Air Quality Not available.
Flu Activity No Activity
METAR KLWD 251753Z AUTO 06007KT 10SM CLR 22/08 A3009 RMK AO2 SLP186 T02170078 10217 20106

More Conditions Fewer Conditions

10-Day Weather Forecast

Almanac

Astronomy

Oct. 25, 2014 Rise Set
Actual Time 7:39 AM CDT 6:24 PM CDT
Civil Twilight 7:11 AM CDT 6:51 PM CDT
Nautical Twilight 6:39 AM CDT 7:23 PM CDT
Astronomical Twilight 6:08 AM CDT 7:55 PM CDT
Moon 9:19 AM CDT 7:47 PM CDT
Length of Visible Light 11h 40m
Length of Day
10h 44m
Tomorrow will be 2m 26s shorter.
Waxing Crescent, 4% of the Moon is Illuminated
Today
Waxing Crescent
Oct 30
First Quarter
Nov 6
Full
Nov 14
Last Quarter
Nov 22
New

Today's Extremes

State Highs State Lows

Community

WunderPhotos

Upload Photos

1,764,931 photos uploaded!

Nearby

Snow Depth

Station Depth Elevation
No new snow has been reported.

Earthquake Activity

City Distance Mag. Time & Date
No recent earthquake activity has been reported nearby.
Minimum magnitude displayed is 2.5.

Coastal Water Temperatures

Place Temperature
No Stations Reporting

Nearby Weather Stations